Abiquiu, New Mexico
Current Conditions -  °F | °C
As of 10:35 PM on Wednesday 26 Nov 2014 (Local Time) from KLAM Reporting Station
Clear Clear  
Wind Chill:   Ceiling: Unl
Heat Index:   Visibility: 10mi
Dew Point: -5°   Wind: 0mph
Humidity: 48%   Direction: NA
Pressure: 30.45"   Gusts: NA
Location:  36.21°N, 106.32°W
Report Text: KLAM 270535Z AUTO 00000KT 10SM CLR 05/M05 A3045 RMK AO2 T00501052
Loading
Personal Weather Stations






























Interactive Weather Map New forecast layout! Learn more

10-Day Weather Forecast

Advertisements
Track Severe Weather on mobile